createdAt,value
2022-09-28T00:02:01.409Z,98821.36
2022-09-28T00:07:04.264Z,98821.69
2022-09-28T00:12:07.184Z,98820.36
2022-09-28T00:17:10.684Z,98815.25
2022-09-28T00:22:13.443Z,98809.21
2022-09-28T00:27:16.374Z,98812.42
2022-09-28T00:32:21.297Z,98816.70
2022-09-28T00:37:24.152Z,98810.47
2022-09-28T00:42:26.999Z,98813.30
2022-09-28T00:47:52.336Z,98811.05
2022-09-28T00:53:05.234Z,98807.50
2022-09-28T00:58:10.405Z,98812.15
2022-09-28T01:03:14.654Z,98810.18
2022-09-28T01:08:17.560Z,98810.75
2022-09-28T01:13:20.732Z,98813.63
2022-09-28T01:18:50.370Z,98810.64
2022-09-28T01:24:38.385Z,98805.61
2022-09-28T01:30:05.694Z,98805.92
2022-09-28T01:35:16.120Z,98810.17
2022-09-28T01:40:21.754Z,98812.41
2022-09-28T01:45:29.433Z,98816.39
2022-09-28T01:50:38.112Z,98817.14
2022-09-28T01:55:48.160Z,98810.60
2022-09-28T02:00:56.676Z,98807.13
2022-09-28T02:06:06.102Z,98794.38
2022-09-28T02:11:17.031Z,98798.23
2022-09-28T02:16:43.022Z,98810.44
2022-09-28T02:22:10.963Z,98816.10
2022-09-28T02:27:34.351Z,98816.04
2022-09-28T02:32:40.672Z,98812.73
2022-09-28T02:37:43.803Z,98808.84
2022-09-28T02:43:00.112Z,98804.86
2022-09-28T02:48:35.929Z,98806.45
2022-09-28T02:54:00.634Z,98815.58
2022-09-28T02:59:33.390Z,98814.35
2022-09-28T03:04:51.343Z,98815.98
2022-09-28T03:10:12.451Z,98811.36
2022-09-28T03:15:26.533Z,98811.23
2022-09-28T03:20:30.916Z,98811.89
2022-09-28T03:25:33.739Z,98813.78
2022-09-28T03:30:36.638Z,98809.35
2022-09-28T03:35:39.816Z,98812.82
2022-09-28T03:40:43.051Z,98809.89
2022-09-28T03:45:53.409Z,98809.37
2022-09-28T03:50:57.519Z,98811.67
2022-09-28T03:56:14.582Z,98811.89
2022-09-28T04:01:18.179Z,98808.20
2022-09-28T04:06:21.604Z,98805.92
2022-09-28T04:11:24.374Z,98807.88
2022-09-28T04:16:27.495Z,98807.23
2022-09-28T04:21:30.407Z,98814.19
2022-09-28T04:26:33.171Z,98816.85
2022-09-28T04:31:52.396Z,98819.15
2022-09-28T04:36:55.402Z,98812.36
2022-09-28T04:41:58.544Z,98807.52
2022-09-28T04:47:04.926Z,98804.93
2022-09-28T04:52:08.354Z,98802.81
2022-09-28T04:57:11.272Z,98800.65
2022-09-28T05:02:15.305Z,98805.83
2022-09-28T05:07:18.151Z,98810.30
2022-09-28T05:12:21.642Z,98811.14
2022-09-28T05:17:24.373Z,98812.41
2022-09-28T05:22:27.217Z,98812.93
2022-09-28T05:27:30.006Z,98821.25
2022-09-28T05:32:32.918Z,98820.55
2022-09-28T05:37:36.610Z,98815.77
2022-09-28T05:42:39.750Z,98826.33
2022-09-28T05:47:43.821Z,98827.25
2022-09-28T05:52:46.931Z,98844.56
2022-09-28T05:57:49.672Z,98854.52
2022-09-28T06:03:01.410Z,98856.34
2022-09-28T06:08:08.545Z,98859.58
2022-09-28T06:13:12.198Z,98869.67
2022-09-28T06:18:15.054Z,98869.61
2022-09-28T06:23:17.949Z,98870.56
2022-09-28T06:28:21.671Z,98874.12
2022-09-28T06:33:26.149Z,98873.98
2022-09-28T06:38:29.293Z,98876.47
2022-09-28T06:43:34.584Z,98876.05
2022-09-28T06:48:38.170Z,98873.65
2022-09-28T06:53:40.948Z,98875.41
2022-09-28T06:58:43.752Z,98875.14
2022-09-28T07:03:46.591Z,98877.74
2022-09-28T07:09:00.707Z,98892.05
2022-09-28T07:14:23.139Z,98895.98
2022-09-28T07:19:28.572Z,98894.75
2022-09-28T07:24:31.375Z,98896.08
2022-09-28T07:29:34.138Z,98898.60
2022-09-28T07:34:41.283Z,98896.65
2022-09-28T07:40:03.095Z,98897.27
2022-09-28T07:45:07.088Z,98896.74
2022-09-28T07:50:09.882Z,98902.92
2022-09-28T07:55:12.698Z,98903.54
2022-09-28T08:00:15.934Z,98906.52
2022-09-28T08:05:18.966Z,98912.56
2022-09-28T08:10:21.746Z,98919.71
2022-09-28T08:15:24.570Z,98918.77
2022-09-28T08:20:49.441Z,98922.96
2022-09-28T08:25:54.467Z,98928.67
2022-09-28T08:30:59.971Z,98928.10
2022-09-28T08:36:04.468Z,98925.49
2022-09-28T08:41:33.810Z,98925.79
2022-09-28T08:46:45.222Z,98926.91
2022-09-28T08:52:06.984Z,98928.97
2022-09-28T08:57:19.504Z,98928.83
2022-09-28T09:02:34.356Z,98924.34
2022-09-28T09:08:08.944Z,98929.91
2022-09-28T09:13:31.983Z,98933.43
2022-09-28T09:18:52.576Z,98932.41
2022-09-28T09:23:57.260Z,98935.23
2022-09-28T09:29:06.400Z,98938.52
2022-09-28T09:34:43.971Z,98942.88
2022-09-28T09:40:32.664Z,98939.56
2022-09-28T09:46:01.250Z,98942.83
2022-09-28T09:51:24.980Z,98947.62
2022-09-28T09:56:39.450Z,98949.99
2022-09-28T10:01:42.433Z,98951.82
2022-09-28T10:06:45.678Z,98957.71
2022-09-28T10:11:51.979Z,98957.60
2022-09-28T10:16:56.310Z,98960.02
2022-09-28T10:22:02.697Z,98962.21
2022-09-28T10:27:08.758Z,98961.77
2022-09-28T10:32:36.769Z,98962.70
2022-09-28T10:38:15.624Z,98967.61
2022-09-28T10:43:38.626Z,98967.14
2022-09-28T10:48:55.453Z,98964.27
2022-09-28T10:54:02.577Z,98963.86
2022-09-28T10:59:29.553Z,98964.02
2022-09-28T11:04:42.752Z,98962.09
2022-09-28T11:09:48.846Z,98960.34
2022-09-28T11:15:03.834Z,98955.29
2022-09-28T11:20:27.950Z,98954.84
2022-09-28T11:25:31.562Z,98961.71
2022-09-28T11:30:42.796Z,98959.58
2022-09-28T11:36:00.896Z,98955.82
2022-09-28T11:41:46.420Z,98952.50
2022-09-28T11:46:55.269Z,98952.45
2022-09-28T11:52:03.605Z,98951.16
2022-09-28T11:57:06.451Z,98953.94
2022-09-28T12:02:38.748Z,98957.88
2022-09-28T12:08:07.087Z,98966.07
2022-09-28T12:13:13.426Z,98969.31
2022-09-28T12:18:30.477Z,98974.73
2022-09-28T12:23:35.861Z,98975.11
2022-09-28T12:28:42.333Z,98974.89
2022-09-28T12:33:48.053Z,98981.17
2022-09-28T12:39:24.017Z,98985.92
2022-09-28T12:44:55.911Z,98986.26
2022-09-28T12:56:09.348Z,98977.73
2022-09-28T13:01:21.085Z,98972.70
2022-09-28T13:06:45.803Z,98969.03
2022-09-28T13:12:34.278Z,98961.56
2022-09-28T13:17:45.123Z,98960.05
2022-09-28T13:23:45.574Z,98956.50
2022-09-28T13:28:48.308Z,98956.07
2022-09-28T13:33:51.086Z,98955.71
2022-09-28T13:38:55.183Z,98954.13
2022-09-28T13:44:13.285Z,98948.36
2022-09-28T13:49:24.987Z,98947.64
2022-09-28T13:55:05.650Z,98947.50
2022-09-28T14:00:11.933Z,98943.27
2022-09-28T14:05:25.073Z,98942.74
2022-09-28T14:10:54.043Z,98942.99
2022-09-28T14:16:22.271Z,98949.97
2022-09-28T14:22:14.576Z,98948.81
2022-09-28T14:27:17.346Z,98951.89
2022-09-28T14:32:24.846Z,98952.30
2022-09-28T14:37:50.548Z,98952.63
2022-09-28T14:43:36.751Z,98949.50
2022-09-28T14:49:04.070Z,98947.52
2022-09-28T14:54:12.463Z,98948.69
2022-09-28T14:59:22.835Z,98954.98
2022-09-28T15:04:28.215Z,98952.77
2022-09-28T15:09:32.377Z,98950.02
2022-09-28T15:14:41.375Z,98954.64
2022-09-28T15:19:51.183Z,98952.91
2022-09-28T15:25:02.436Z,98960.97
2022-09-28T15:30:31.944Z,98969.50
2022-09-28T15:35:35.811Z,98965.79
2022-09-28T15:40:38.605Z,98959.40
2022-09-28T15:45:43.514Z,98961.30
2022-09-28T15:51:11.031Z,98967.16
2022-09-28T15:56:14.728Z,98964.89
2022-09-28T16:01:35.982Z,98959.72
2022-09-28T16:06:41.142Z,98956.98
2022-09-28T16:11:43.847Z,98951.27
2022-09-28T16:16:51.866Z,98955.20
2022-09-28T16:22:02.635Z,98955.35
2022-09-28T16:27:27.819Z,98949.65
2022-09-28T16:32:41.817Z,98937.08
2022-09-28T16:37:44.877Z,98941.98
2022-09-28T16:42:49.323Z,98935.48
2022-09-28T16:47:53.180Z,98928.81
2022-09-28T16:53:33.360Z,98928.91
2022-09-28T16:58:39.214Z,98922.16
2022-09-28T17:03:46.801Z,98926.00
2022-09-28T17:08:49.637Z,98938.89
2022-09-28T17:13:57.231Z,98928.23
2022-09-28T17:19:01.124Z,98930.48
2022-09-28T17:24:05.097Z,98931.36
2022-09-28T17:29:09.879Z,98924.02
2022-09-28T17:34:19.608Z,98916.45
2022-09-28T17:39:25.086Z,98911.15
2022-09-28T17:44:28.490Z,98907.34
2022-09-28T17:49:31.237Z,98906.62
2022-09-28T17:54:34.343Z,98911.23
2022-09-28T17:59:37.029Z,98918.84
2022-09-28T18:04:51.910Z,98928.27
2022-09-28T18:09:56.841Z,98939.55
2022-09-28T18:14:59.546Z,98947.62
2022-09-28T18:20:02.375Z,98957.56
2022-09-28T18:25:07.563Z,98972.31
2022-09-28T18:30:10.844Z,98981.98
2022-09-28T18:35:13.584Z,98998.09
2022-09-28T18:40:16.352Z,99011.95
2022-09-28T18:45:19.671Z,99022.29
2022-09-28T18:50:22.459Z,99022.30
2022-09-28T18:55:25.254Z,99033.14
2022-09-28T19:00:27.938Z,99032.50
2022-09-28T19:05:30.731Z,99044.33
2022-09-28T19:10:33.902Z,99058.97
2022-09-28T19:15:37.053Z,99060.77
2022-09-28T19:20:40.312Z,99065.39
2022-09-28T19:25:43.042Z,99060.31
2022-09-28T19:30:45.881Z,99048.04
2022-09-28T19:36:20.665Z,99032.37
2022-09-28T19:41:43.755Z,99028.11
2022-09-28T19:46:47.385Z,99015.45
2022-09-28T19:57:16.084Z,98993.58
2022-09-28T20:02:19.208Z,98974.23
2022-09-28T20:07:22.003Z,98960.42
2022-09-28T20:12:24.739Z,98972.97
2022-09-28T20:17:27.764Z,98980.48
2022-09-28T20:22:31.125Z,98979.61
2022-09-28T20:27:33.881Z,98977.12
2022-09-28T20:32:37.729Z,98982.95
2022-09-28T20:37:40.706Z,98986.77
2022-09-28T20:42:45.861Z,98987.20
2022-09-28T20:47:48.659Z,98994.13
2022-09-28T20:52:51.389Z,98994.69
2022-09-28T20:57:54.636Z,98989.33
2022-09-28T21:02:57.610Z,98985.77
2022-09-28T21:08:00.465Z,98984.06
2022-09-28T21:13:03.279Z,98984.77
2022-09-28T21:18:06.381Z,98994.00
2022-09-28T21:23:09.136Z,98996.41
2022-09-28T21:28:13.669Z,98997.11
2022-09-28T21:33:16.351Z,98993.40
2022-09-28T21:38:19.063Z,98991.60
2022-09-28T21:43:21.764Z,98992.70
2022-09-28T21:48:26.133Z,98998.81
2022-09-28T21:53:31.685Z,99006.71
2022-09-28T21:58:35.434Z,99013.39
2022-09-28T22:03:38.192Z,99012.91
2022-09-28T22:08:40.962Z,99012.96
2022-09-28T22:13:58.272Z,99015.23
2022-09-28T22:19:01.113Z,99023.23
2022-09-28T22:24:07.050Z,99037.35
2022-09-28T22:29:10.144Z,99037.95
2022-09-28T22:34:12.840Z,99035.60
2022-09-28T22:39:15.591Z,99026.99
2022-09-28T22:44:19.764Z,99026.20
2022-09-28T22:49:22.751Z,99036.50
2022-09-28T22:54:25.718Z,99041.66
2022-09-28T22:59:28.452Z,99034.66
2022-09-28T23:04:32.349Z,99033.76
2022-09-28T23:09:35.058Z,99036.54
2022-09-28T23:14:37.801Z,99043.73
2022-09-28T23:19:40.524Z,99052.84
2022-09-28T23:24:43.255Z,99053.98
2022-09-28T23:29:48.839Z,99060.16
2022-09-28T23:34:51.536Z,99048.34
2022-09-28T23:39:54.320Z,99048.52
2022-09-28T23:44:58.198Z,99057.10
2022-09-28T23:50:00.933Z,99062.92
2022-09-28T23:55:04.032Z,99073.84
